MacAlister, Canada
Current Conditions -  °F | °C
As of 4:00 AM on Monday 26 Jan 2015 (Local Time) from CYWL Reporting Station
Broken Clouds Broken Clouds  
Wind Chill:   Ceiling: 9000
Heat Index:   Visibility: 15mi
Dew Point:   Wind: 5mph
Humidity: 75%   Direction: 100°E
Pressure: 29.89"   Gusts: NA
Location:  52.45°N, 122.4°W
Report Text: CYWL 261200Z 10004KT 15SM BKN090 04/M00 A2989 RMK AC7 SLP147
Loading
Personal Weather Stations






























Interactive Weather Map New forecast layout! Learn more

10-Day Weather Forecast

Advertisements
Track Severe Weather on mobile